Terminal Aerodrome Forecast
Issued by NWS Kansas City/Pleasant Hill, MO

Home | Current Version | Previous Version | Text Only | Print | Product List | Glossary On
Versions: 1 2 3 4 5 6 7 8 9 10 11 12 13
000
FTUS43 KEAX 141700
TAFMCI
TAF
KMCI 141721Z 1418/1518 16008KT P6SM SCT080
     FM151000 15008KT P6SM VCTS OVC035CB
     FM151500 32008KT P6SM VCSH BKN025=

USA.gov is the U.S. government's official web portal to all federal, state and local government web resources and services.